createdAt,value
2019-03-13T00:00:07.071Z,89.916992
2019-03-13T00:00:18.850Z,90.020752
2019-03-13T00:00:30.629Z,90.020752
2019-03-13T00:00:42.427Z,90.124512
2019-03-13T00:00:54.242Z,90.228271
2019-03-13T00:01:05.998Z,90.332031
2019-03-13T00:01:17.751Z,90.332031
2019-03-13T00:01:29.519Z,90.332031
2019-03-13T00:01:41.294Z,90.332031
2019-03-13T00:01:53.123Z,90.228271
2019-03-13T00:02:04.906Z,90.228271
2019-03-13T00:02:16.718Z,90.228271
2019-03-13T00:02:28.510Z,90.124512
2019-03-13T00:02:40.280Z,90.020752
2019-03-13T00:02:52.099Z,90.020752
2019-03-13T00:03:03.838Z,90.020752
2019-03-13T00:03:15.589Z,89.916992
2019-03-13T00:03:27.410Z,90.020752
2019-03-13T00:03:39.187Z,90.124512
2019-03-13T00:03:50.984Z,90.124512
2019-03-13T00:04:02.792Z,90.228271
2019-03-13T00:04:14.573Z,90.228271
2019-03-13T00:04:26.404Z,90.228271
2019-03-13T00:04:38.203Z,90.228271
2019-03-13T00:04:49.977Z,90.228271
2019-03-13T00:05:01.803Z,90.124512
2019-03-13T00:05:13.562Z,90.020752
2019-03-13T00:05:25.351Z,89.916992
2019-03-13T00:05:37.099Z,90.020752
2019-03-13T00:05:48.864Z,90.020752
2019-03-13T00:06:00.664Z,90.020752
2019-03-13T00:06:12.452Z,89.916992
2019-03-13T00:06:24.229Z,89.916992
2019-03-13T00:06:36.004Z,89.916992
2019-03-13T00:06:47.804Z,89.916992
2019-03-13T00:06:59.573Z,89.813232
2019-03-13T00:07:11.401Z,89.709473
2019-03-13T00:07:23.186Z,89.605713
2019-03-13T00:07:34.975Z,89.605713
2019-03-13T00:07:46.754Z,89.605713
2019-03-13T00:07:58.547Z,89.709473
2019-03-13T00:08:10.315Z,89.709473
2019-03-13T00:08:22.089Z,89.605713
2019-03-13T00:08:33.856Z,89.501953
2019-03-13T00:08:45.662Z,89.501953
2019-03-13T00:08:57.460Z,89.398193
2019-03-13T00:09:09.277Z,89.501953
2019-03-13T00:09:22.072Z,89.605713
2019-03-13T00:09:33.901Z,89.605713
2019-03-13T00:09:45.686Z,89.709473
2019-03-13T00:09:57.500Z,89.709473
2019-03-13T00:10:09.346Z,89.813232
2019-03-13T00:10:21.152Z,89.813232
2019-03-13T00:10:33.949Z,89.813232
2019-03-13T00:10:45.756Z,89.813232
2019-03-13T00:10:57.563Z,89.813232
2019-03-13T00:11:09.431Z,89.709473
2019-03-13T00:11:21.259Z,89.605713
2019-03-13T00:11:33.093Z,89.605713
2019-03-13T00:11:44.931Z,89.605713
2019-03-13T00:11:56.727Z,89.501953
2019-03-13T00:12:08.520Z,89.294434
2019-03-13T00:12:20.325Z,89.190674
2019-03-13T00:12:32.105Z,89.190674
2019-03-13T00:12:43.875Z,89.190674
2019-03-13T00:12:55.654Z,89.190674
2019-03-13T00:13:07.412Z,89.294434
2019-03-13T00:13:19.249Z,89.294434
2019-03-13T00:13:31.048Z,89.398193
2019-03-13T00:13:42.795Z,89.501953
2019-03-13T00:13:54.686Z,89.501953
2019-03-13T00:14:06.489Z,89.501953
2019-03-13T00:14:18.349Z,89.501953
2019-03-13T00:14:30.542Z,89.294434
2019-03-13T00:14:42.347Z,89.190674
2019-03-13T00:14:54.188Z,89.190674
2019-03-13T00:15:05.997Z,89.086914
2019-03-13T00:15:17.807Z,88.983154
2019-03-13T00:15:29.624Z,88.879395
2019-03-13T00:15:41.412Z,88.983154
2019-03-13T00:15:53.247Z,89.086914
2019-03-13T00:16:05.034Z,89.190674
2019-03-13T00:16:16.798Z,89.294434
2019-03-13T00:16:28.588Z,89.398193
2019-03-13T00:16:40.382Z,89.294434
2019-03-13T00:16:52.177Z,89.294434
2019-03-13T00:17:03.958Z,89.398193
2019-03-13T00:17:15.696Z,89.398193
2019-03-13T00:17:27.497Z,89.398193
2019-03-13T00:17:39.277Z,89.501953
2019-03-13T00:17:51.069Z,89.398193
2019-03-13T00:18:02.912Z,89.294434
2019-03-13T00:18:14.711Z,89.294434
2019-03-13T00:18:26.545Z,89.294434
2019-03-13T00:18:38.371Z,89.501953
2019-03-13T00:18:50.156Z,89.501953
2019-03-13T00:19:01.994Z,89.398193
2019-03-13T00:19:13.804Z,89.398193
2019-03-13T00:19:25.572Z,89.501953
2019-03-13T00:19:37.358Z,89.501953
2019-03-13T00:19:49.153Z,89.501953
2019-03-13T00:20:00.914Z,89.605713
2019-03-13T00:20:12.811Z,89.605713
2019-03-13T00:20:24.544Z,89.605713
2019-03-13T00:20:36.343Z,89.605713
2019-03-13T00:20:48.137Z,89.501953
2019-03-13T00:20:59.948Z,89.501953
2019-03-13T00:21:11.731Z,89.501953
2019-03-13T00:21:23.485Z,89.398193
2019-03-13T00:21:35.269Z,89.398193
2019-03-13T00:21:47.051Z,89.398193
2019-03-13T00:21:58.982Z,89.544678
2019-03-13T00:22:11.792Z,89.501953
2019-03-13T00:22:23.909Z,89.544678
2019-03-13T00:22:35.787Z,89.440918
2019-03-13T00:22:47.598Z,89.398193
2019-03-13T00:22:59.364Z,89.398193
2019-03-13T00:23:11.132Z,89.398193
2019-03-13T00:23:22.939Z,89.398193
2019-03-13T00:23:34.722Z,89.501953
2019-03-13T00:23:46.542Z,89.709473
2019-03-13T00:23:58.301Z,89.709473
2019-03-13T00:24:10.079Z,89.709473
2019-03-13T00:24:21.868Z,89.813232
2019-03-13T00:24:33.660Z,89.916992
2019-03-13T00:24:45.493Z,90.020752
2019-03-13T00:24:58.272Z,89.916992
2019-03-13T00:25:10.097Z,89.916992
2019-03-13T00:25:21.839Z,89.916992
2019-03-13T00:25:33.632Z,89.813232
2019-03-13T00:25:45.412Z,89.813232
2019-03-13T00:25:57.199Z,89.813232
2019-03-13T00:26:08.989Z,89.813232
2019-03-13T00:26:20.759Z,89.855957
2019-03-13T00:26:32.531Z,89.916992
2019-03-13T00:26:44.331Z,89.959717
2019-03-13T00:26:56.112Z,89.855957
2019-03-13T00:27:07.910Z,89.648438
2019-03-13T00:27:19.695Z,89.440918
2019-03-13T00:27:31.531Z,89.440918
2019-03-13T00:27:43.286Z,89.440918
2019-03-13T00:27:55.105Z,89.440918
2019-03-13T00:28:06.911Z,89.440918
2019-03-13T00:28:18.687Z,89.440918
2019-03-13T00:28:30.472Z,89.440918
2019-03-13T00:28:42.245Z,89.337158
2019-03-13T00:28:54.046Z,89.337158
2019-03-13T00:29:05.836Z,89.337158
2019-03-13T00:29:17.670Z,89.337158
2019-03-13T00:29:29.402Z,89.440918
2019-03-13T00:29:41.211Z,89.544678
2019-03-13T00:29:52.986Z,89.440918
2019-03-13T00:30:04.803Z,89.337158
2019-03-13T00:30:16.593Z,89.337158
2019-03-13T00:30:28.392Z,89.337158
2019-03-13T00:30:40.180Z,89.337158
2019-03-13T00:30:51.952Z,89.233398
2019-03-13T00:31:03.744Z,89.337158
2019-03-13T00:31:15.533Z,89.440918
2019-03-13T00:31:27.328Z,89.544678
2019-03-13T00:31:39.155Z,89.544678
2019-03-13T00:31:50.919Z,89.648438
2019-03-13T00:32:02.706Z,89.752197
2019-03-13T00:32:14.522Z,89.752197
2019-03-13T00:32:26.372Z,89.544678
2019-03-13T00:32:38.159Z,89.544678
2019-03-13T00:32:49.930Z,89.440918
2019-03-13T00:33:01.757Z,89.337158
2019-03-13T00:33:13.548Z,89.337158
2019-03-13T00:33:25.331Z,89.337158
2019-03-13T00:33:37.125Z,89.440918
2019-03-13T00:33:48.921Z,89.440918
2019-03-13T00:34:00.730Z,89.440918
2019-03-13T00:34:12.485Z,89.440918
2019-03-13T00:34:24.298Z,89.544678
2019-03-13T00:34:36.095Z,89.648438
2019-03-13T00:34:47.879Z,89.855957
2019-03-13T00:34:59.821Z,89.959717
2019-03-13T00:35:11.686Z,89.959717
2019-03-13T00:35:23.386Z,89.855957
2019-03-13T00:35:35.192Z,89.752197
2019-03-13T00:35:46.967Z,89.752197
2019-03-13T00:35:58.858Z,89.648438
2019-03-13T00:36:10.516Z,89.648438
2019-03-13T00:36:22.330Z,89.544678
2019-03-13T00:36:34.117Z,89.544678
2019-03-13T00:36:45.943Z,89.648438
2019-03-13T00:36:57.757Z,89.648438
2019-03-13T00:37:09.575Z,89.752197
2019-03-13T00:37:21.381Z,89.752197
2019-03-13T00:37:33.147Z,89.752197
2019-03-13T00:37:44.947Z,89.752197
2019-03-13T00:37:56.729Z,89.752197
2019-03-13T00:38:08.556Z,89.648438
2019-03-13T00:38:20.344Z,89.544678
2019-03-13T00:38:32.120Z,89.544678
2019-03-13T00:38:43.958Z,89.648438
2019-03-13T00:38:55.775Z,89.544678
2019-03-13T00:39:07.539Z,89.501953
2019-03-13T00:39:19.336Z,89.440918
2019-03-13T00:39:31.114Z,89.440918
2019-03-13T00:39:42.935Z,89.544678
2019-03-13T00:39:54.767Z,89.544678
2019-03-13T00:40:06.560Z,89.648438
2019-03-13T00:40:18.372Z,89.648438
2019-03-13T00:40:30.168Z,89.752197
2019-03-13T00:40:41.973Z,89.855957
2019-03-13T00:40:53.796Z,89.855957
2019-03-13T00:41:05.589Z,89.855957
2019-03-13T00:41:17.358Z,89.752197
2019-03-13T00:41:29.167Z,89.752197
2019-03-13T00:41:40.979Z,89.752197
2019-03-13T00:41:52.747Z,89.648438
2019-03-13T00:42:05.530Z,89.648438
2019-03-13T00:42:17.315Z,89.648438
2019-03-13T00:42:29.120Z,89.501953
2019-03-13T00:42:40.890Z,89.501953
2019-03-13T00:42:52.662Z,89.501953
2019-03-13T00:43:04.464Z,89.398193
2019-03-13T00:43:16.248Z,89.294434
2019-03-13T00:43:28.037Z,89.294434
2019-03-13T00:43:39.836Z,89.190674
2019-03-13T00:43:51.611Z,89.190674
2019-03-13T00:44:03.401Z,89.086914
2019-03-13T00:44:15.231Z,88.983154
2019-03-13T00:44:27.016Z,88.983154
2019-03-13T00:44:38.826Z,88.983154
2019-03-13T00:44:50.635Z,88.983154
2019-03-13T00:45:02.423Z,88.983154
2019-03-13T00:45:14.237Z,89.086914
2019-03-13T00:45:26.016Z,89.086914
2019-03-13T00:45:37.762Z,89.086914
2019-03-13T00:45:49.551Z,88.983154
2019-03-13T00:46:06.832Z,88.983154
2019-03-13T00:46:18.629Z,88.983154
2019-03-13T00:46:30.417Z,88.983154
2019-03-13T00:46:42.163Z,89.086914
2019-03-13T00:46:53.946Z,89.086914
2019-03-13T00:47:05.753Z,88.983154
2019-03-13T00:47:17.571Z,89.086914
2019-03-13T00:47:29.313Z,89.190674
2019-03-13T00:47:41.094Z,89.190674
2019-03-13T00:47:52.856Z,89.190674
2019-03-13T00:48:04.642Z,89.086914
2019-03-13T00:48:16.443Z,89.086914
2019-03-13T00:48:28.206Z,89.086914
2019-03-13T00:48:39.988Z,88.879395
2019-03-13T00:48:51.760Z,88.775635
2019-03-13T00:49:03.546Z,88.671875
2019-03-13T00:49:15.315Z,88.568115
2019-03-13T00:49:27.159Z,88.568115
2019-03-13T00:49:38.943Z,88.568115
2019-03-13T00:49:50.758Z,88.568115
2019-03-13T00:50:02.549Z,88.568115
2019-03-13T00:50:14.328Z,88.568115
2019-03-13T00:50:26.097Z,88.464355
2019-03-13T00:50:37.916Z,88.464355
2019-03-13T00:50:49.700Z,88.464355
2019-03-13T00:51:01.485Z,88.464355
2019-03-13T00:51:13.287Z,88.464355
2019-03-13T00:51:25.065Z,88.568115
2019-03-13T00:51:37.817Z,88.568115
2019-03-13T00:51:49.615Z,88.568115
2019-03-13T00:52:01.402Z,88.775635
2019-03-13T00:52:13.173Z,88.879395
2019-03-13T00:52:24.940Z,88.879395
2019-03-13T00:52:36.747Z,88.879395
2019-03-13T00:52:48.540Z,88.879395
2019-03-13T00:53:00.307Z,88.983154
2019-03-13T00:53:12.065Z,89.086914
2019-03-13T00:53:23.825Z,89.086914
2019-03-13T00:53:35.570Z,88.983154
2019-03-13T00:53:47.373Z,88.879395
2019-03-13T00:53:59.138Z,88.775635
2019-03-13T00:54:10.904Z,88.775635
2019-03-13T00:54:22.711Z,88.775635
2019-03-13T00:54:34.502Z,88.671875
2019-03-13T00:54:46.258Z,88.568115
2019-03-13T00:54:58.026Z,88.568115
2019-03-13T00:55:09.805Z,88.464355
2019-03-13T00:55:21.573Z,88.568115
2019-03-13T00:55:33.358Z,88.775635
2019-03-13T00:55:45.154Z,88.671875
2019-03-13T00:55:56.969Z,88.671875
2019-03-13T00:56:08.774Z,88.568115
2019-03-13T00:56:20.545Z,88.568115
2019-03-13T00:56:32.300Z,88.525391
2019-03-13T00:56:44.094Z,88.568115
2019-03-13T00:56:55.873Z,88.525391
2019-03-13T00:57:07.647Z,88.62915
2019-03-13T00:57:19.425Z,88.83667
2019-03-13T00:57:31.196Z,88.83667
2019-03-13T00:57:42.974Z,88.83667
2019-03-13T00:57:54.741Z,88.83667
2019-03-13T00:58:06.513Z,88.94043
2019-03-13T00:58:19.002Z,88.983154
2019-03-13T00:58:30.034Z,88.983154
2019-03-13T00:58:41.811Z,88.83667
2019-03-13T00:58:53.573Z,88.73291
2019-03-13T00:59:05.357Z,88.62915
2019-03-13T00:59:17.116Z,88.62915
2019-03-13T00:59:28.882Z,88.525391
2019-03-13T00:59:40.642Z,88.421631
2019-03-13T00:59:52.406Z,88.421631
2019-03-13T01:00:04.191Z,88.421631
2019-03-13T01:00:15.984Z,88.317871
2019-03-13T01:00:27.746Z,88.214111
2019-03-13T01:00:39.526Z,88.214111
2019-03-13T01:00:51.327Z,88.214111
2019-03-13T01:01:03.114Z,88.317871
2019-03-13T01:01:14.928Z,88.317871
2019-03-13T01:01:26.707Z,88.214111
2019-03-13T01:01:38.458Z,88.110352
2019-03-13T01:01:50.238Z,88.006592
2019-03-13T01:02:03.003Z,87.799072
2019-03-13T01:02:14.779Z,87.695312
2019-03-13T01:02:26.559Z,87.695312
2019-03-13T01:02:38.314Z,87.591553
2019-03-13T01:02:50.088Z,87.591553
2019-03-13T01:03:01.905Z,87.591553
2019-03-13T01:03:13.666Z,87.695312
2019-03-13T01:03:25.451Z,87.799072
2019-03-13T01:03:37.216Z,87.902832
2019-03-13T01:03:48.973Z,87.902832
2019-03-13T01:04:00.751Z,88.006592
2019-03-13T01:04:12.537Z,88.110352
2019-03-13T01:04:24.323Z,88.006592
2019-03-13T01:04:36.078Z,88.006592
2019-03-13T01:04:47.860Z,88.006592
2019-03-13T01:04:59.654Z,88.006592
2019-03-13T01:05:11.420Z,88.006592
2019-03-13T01:05:23.173Z,88.006592
2019-03-13T01:05:34.930Z,88.214111
2019-03-13T01:05:46.679Z,88.317871
2019-03-13T01:05:58.457Z,88.421631
2019-03-13T01:06:11.270Z,88.317871
2019-03-13T01:06:23.024Z,88.317871
2019-03-13T01:06:34.860Z,88.317871
2019-03-13T01:06:46.624Z,88.421631
2019-03-13T01:06:58.409Z,88.317871
2019-03-13T01:07:10.194Z,88.214111
2019-03-13T01:07:21.977Z,88.317871
2019-03-13T01:07:33.754Z,88.317871
2019-03-13T01:07:45.522Z,88.525391
2019-03-13T01:07:57.312Z,88.525391
2019-03-13T01:08:09.106Z,88.317871
2019-03-13T01:08:20.882Z,88.214111
2019-03-13T01:08:32.689Z,88.214111
2019-03-13T01:08:44.468Z,88.214111
2019-03-13T01:08:56.246Z,88.110352
2019-03-13T01:09:08.053Z,88.006592
2019-03-13T01:09:19.858Z,87.902832
2019-03-13T01:09:31.644Z,88.110352
2019-03-13T01:09:43.424Z,88.006592
2019-03-13T01:09:55.242Z,88.006592
2019-03-13T01:10:07.035Z,88.006592
2019-03-13T01:10:18.822Z,88.006592
2019-03-13T01:10:30.596Z,87.902832
2019-03-13T01:10:42.372Z,87.799072
2019-03-13T01:10:54.172Z,87.799072
2019-03-13T01:11:05.920Z,87.902832
2019-03-13T01:11:17.725Z,88.006592
2019-03-13T01:11:30.485Z,87.902832
2019-03-13T01:11:42.284Z,87.799072
2019-03-13T01:11:54.068Z,87.695312
2019-03-13T01:12:05.834Z,87.695312
2019-03-13T01:12:17.618Z,87.695312
2019-03-13T01:12:29.380Z,87.658691
2019-03-13T01:12:41.140Z,87.658691
2019-03-13T01:12:52.931Z,87.762451
2019-03-13T01:13:04.712Z,87.969971
2019-03-13T01:13:16.489Z,88.07373
2019-03-13T01:13:28.261Z,88.07373
2019-03-13T01:13:40.026Z,88.17749
2019-03-13T01:13:51.809Z,88.28125
2019-03-13T01:14:03.585Z,88.28125
2019-03-13T01:14:15.397Z,88.17749
2019-03-13T01:14:27.145Z,88.07373
2019-03-13T01:14:38.927Z,88.07373
2019-03-13T01:14:50.687Z,88.07373
2019-03-13T01:15:02.446Z,88.17749
2019-03-13T01:15:14.259Z,88.421631
2019-03-13T01:15:26.012Z,88.525391
2019-03-13T01:15:37.792Z,88.421631
2019-03-13T01:15:49.603Z,88.214111
2019-03-13T01:16:01.375Z,87.969971
2019-03-13T01:16:13.140Z,87.969971
2019-03-13T01:16:24.945Z,87.969971
2019-03-13T01:16:36.729Z,88.07373
2019-03-13T01:16:48.482Z,88.17749
2019-03-13T01:17:00.294Z,88.17749
2019-03-13T01:17:12.058Z,88.07373
2019-03-13T01:17:23.845Z,87.866211
2019-03-13T01:17:38.590Z,87.762451
2019-03-13T01:17:47.384Z,87.658691
2019-03-13T01:17:59.168Z,87.451172
2019-03-13T01:18:10.919Z,87.347412
2019-03-13T01:18:22.666Z,87.347412
2019-03-13T01:18:34.428Z,87.347412
2019-03-13T01:18:46.214Z,87.451172
2019-03-13T01:18:57.965Z,87.451172
2019-03-13T01:19:09.744Z,87.451172
2019-03-13T01:19:21.557Z,87.451172
2019-03-13T01:19:33.295Z,87.451172
2019-03-13T01:19:45.076Z,87.451172
2019-03-13T01:19:56.865Z,87.451172
2019-03-13T01:20:08.641Z,87.451172
2019-03-13T01:20:20.395Z,87.451172
2019-03-13T01:20:33.176Z,87.658691
2019-03-13T01:20:44.932Z,87.762451
2019-03-13T01:20:56.720Z,87.866211
2019-03-13T01:21:08.508Z,88.07373
2019-03-13T01:21:20.298Z,87.969971
2019-03-13T01:21:32.075Z,87.866211
2019-03-13T01:21:43.845Z,87.866211
2019-03-13T01:21:55.603Z,87.866211
2019-03-13T01:22:07.373Z,87.762451
2019-03-13T01:22:19.182Z,87.866211
2019-03-13T01:22:30.946Z,87.762451
2019-03-13T01:22:42.753Z,87.762451
2019-03-13T01:22:54.521Z,87.762451
2019-03-13T01:23:06.338Z,87.866211
2019-03-13T01:23:18.088Z,87.866211
2019-03-13T01:23:29.852Z,87.969971
2019-03-13T01:23:41.646Z,88.17749
2019-03-13T01:23:53.446Z,88.28125
2019-03-13T01:24:05.235Z,88.28125
2019-03-13T01:24:17.032Z,88.17749
2019-03-13T01:24:28.839Z,88.07373
2019-03-13T01:24:40.603Z,88.07373
2019-03-13T01:24:52.397Z,88.07373
2019-03-13T01:25:04.169Z,88.07373
2019-03-13T01:25:15.944Z,88.07373
2019-03-13T01:25:27.721Z,88.17749
2019-03-13T01:25:39.491Z,87.969971
2019-03-13T01:25:51.282Z,87.866211
2019-03-13T01:26:03.040Z,87.762451
2019-03-13T01:26:14.805Z,87.762451
2019-03-13T01:26:26.616Z,87.762451
2019-03-13T01:26:38.371Z,87.969971
2019-03-13T01:26:50.116Z,88.17749
2019-03-13T01:27:01.873Z,88.38501
2019-03-13T01:27:13.636Z,88.38501
2019-03-13T01:27:25.411Z,88.38501
2019-03-13T01:27:37.293Z,88.28125
2019-03-13T01:27:49.057Z,88.28125
2019-03-13T01:28:00.824Z,88.17749
2019-03-13T01:28:12.579Z,88.17749
2019-03-13T01:28:24.343Z,88.28125
2019-03-13T01:28:36.131Z,88.38501
2019-03-13T01:28:47.885Z,88.482666
2019-03-13T01:28:59.657Z,88.482666
2019-03-13T01:29:11.456Z,88.482666
2019-03-13T01:29:23.227Z,88.38501
2019-03-13T01:29:34.990Z,88.38501
2019-03-13T01:29:46.748Z,88.28125
2019-03-13T01:29:58.500Z,88.28125
2019-03-13T01:30:10.298Z,88.07373
2019-03-13T01:30:23.090Z,87.969971
2019-03-13T01:30:34.854Z,88.07373
2019-03-13T01:30:46.643Z,88.17749
2019-03-13T01:30:58.405Z,88.17749
2019-03-13T01:31:10.197Z,88.07373
2019-03-13T01:31:21.961Z,87.969971
2019-03-13T01:31:33.723Z,87.969971
2019-03-13T01:31:45.473Z,88.07373
2019-03-13T01:31:57.240Z,88.17749
2019-03-13T01:32:09.053Z,88.28125
2019-03-13T01:32:20.858Z,88.28125
2019-03-13T01:32:32.624Z,88.17749
2019-03-13T01:32:44.471Z,88.17749
2019-03-13T01:32:56.221Z,88.28125
2019-03-13T01:33:07.974Z,88.28125
2019-03-13T01:33:19.741Z,88.28125
2019-03-13T01:33:32.511Z,88.28125
2019-03-13T01:33:44.332Z,88.17749
2019-03-13T01:33:56.031Z,88.07373
2019-03-13T01:34:07.792Z,87.969971
2019-03-13T01:34:19.643Z,87.969971
2019-03-13T01:34:32.394Z,87.866211
2019-03-13T01:34:44.164Z,87.866211
2019-03-13T01:34:55.967Z,87.866211
2019-03-13T01:35:07.719Z,87.866211
2019-03-13T01:35:19.486Z,87.762451
2019-03-13T01:35:31.260Z,87.658691
2019-03-13T01:35:43.019Z,87.451172
2019-03-13T01:35:54.761Z,87.451172
2019-03-13T01:36:06.524Z,87.554932
2019-03-13T01:36:18.282Z,87.762451
2019-03-13T01:36:30.058Z,87.866211
2019-03-13T01:36:41.837Z,87.969971
2019-03-13T01:36:53.594Z,87.969971
2019-03-13T01:37:05.431Z,88.07373
2019-03-13T01:37:17.124Z,87.969971
2019-03-13T01:37:28.905Z,87.866211
2019-03-13T01:37:40.648Z,87.762451
2019-03-13T01:37:52.400Z,87.658691
2019-03-13T01:38:04.169Z,87.762451
2019-03-13T01:38:15.942Z,87.719727
2019-03-13T01:38:27.715Z,87.866211
2019-03-13T01:38:39.495Z,87.969971
2019-03-13T01:38:51.268Z,87.866211
2019-03-13T01:39:03.021Z,87.762451
2019-03-13T01:39:14.789Z,87.762451
2019-03-13T01:39:26.565Z,87.969971
2019-03-13T01:39:38.344Z,88.07373
2019-03-13T01:39:50.252Z,88.07373
2019-03-13T01:40:02.019Z,88.07373
2019-03-13T01:40:13.794Z,88.17749
2019-03-13T01:40:25.575Z,88.38501
2019-03-13T01:40:37.347Z,88.482666
2019-03-13T01:40:49.119Z,88.28125
2019-03-13T01:41:00.910Z,88.28125
2019-03-13T01:41:12.668Z,88.17749
2019-03-13T01:41:24.494Z,88.07373
2019-03-13T01:41:36.305Z,88.07373
2019-03-13T01:41:48.116Z,88.07373
2019-03-13T01:41:59.945Z,88.07373
2019-03-13T01:42:11.725Z,87.969971
2019-03-13T01:42:23.504Z,87.969971
2019-03-13T01:42:35.331Z,87.969971
2019-03-13T01:42:47.127Z,88.07373
2019-03-13T01:42:58.945Z,88.07373
2019-03-13T01:43:10.716Z,88.17749
2019-03-13T01:43:22.501Z,88.28125
2019-03-13T01:43:34.283Z,88.28125
2019-03-13T01:43:46.057Z,88.28125
2019-03-13T01:43:57.873Z,88.28125
2019-03-13T01:44:09.647Z,88.38501
2019-03-13T01:44:21.475Z,88.38501
2019-03-13T01:44:33.264Z,88.482666
2019-03-13T01:44:45.106Z,88.482666
2019-03-13T01:44:56.909Z,88.482666
2019-03-13T01:45:08.730Z,88.482666
2019-03-13T01:45:20.513Z,88.482666
2019-03-13T01:45:32.316Z,88.38501
2019-03-13T01:45:44.117Z,88.28125
2019-03-13T01:45:55.898Z,88.28125
2019-03-13T01:46:07.678Z,88.28125
2019-03-13T01:46:19.464Z,88.28125
2019-03-13T01:46:31.252Z,88.28125
2019-03-13T01:46:43.074Z,88.07373
2019-03-13T01:46:54.891Z,87.866211
2019-03-13T01:47:06.674Z,87.658691
2019-03-13T01:47:18.446Z,87.554932
2019-03-13T01:47:30.265Z,87.658691
2019-03-13T01:47:42.079Z,87.615967
2019-03-13T01:47:53.894Z,87.719727
2019-03-13T01:48:05.641Z,87.719727
2019-03-13T01:48:17.437Z,87.719727
2019-03-13T01:48:29.243Z,87.823486
2019-03-13T01:48:41.055Z,87.969971
2019-03-13T01:48:52.842Z,87.823486
2019-03-13T01:49:04.662Z,87.719727
2019-03-13T01:49:16.490Z,87.823486
2019-03-13T01:49:28.276Z,87.823486
2019-03-13T01:49:40.144Z,87.823486
2019-03-13T01:49:51.964Z,87.823486
2019-03-13T01:50:03.793Z,87.719727
2019-03-13T01:50:15.766Z,87.823486
2019-03-13T01:50:27.490Z,87.719727
2019-03-13T01:50:39.338Z,87.719727
2019-03-13T01:50:51.139Z,87.615967
2019-03-13T01:51:02.932Z,87.615967
2019-03-13T01:51:14.757Z,87.615967
2019-03-13T01:51:26.607Z,87.615967
2019-03-13T01:51:38.449Z,87.615967
2019-03-13T01:51:50.270Z,87.615967
2019-03-13T01:52:02.082Z,87.719727
2019-03-13T01:52:13.902Z,87.719727
2019-03-13T01:52:25.688Z,87.615967
2019-03-13T01:52:37.532Z,87.615967
2019-03-13T01:52:49.377Z,87.615967
2019-03-13T01:53:01.156Z,87.719727
2019-03-13T01:53:12.986Z,88.07373
2019-03-13T01:53:24.801Z,88.38501
2019-03-13T01:53:36.642Z,88.38501
2019-03-13T01:53:48.501Z,88.38501
2019-03-13T01:54:00.288Z,88.482666
2019-03-13T01:54:12.111Z,88.586426
2019-03-13T01:54:23.930Z,88.586426
2019-03-13T01:54:35.735Z,88.482666
2019-03-13T01:54:47.612Z,88.38501
2019-03-13T01:54:59.422Z,88.28125
2019-03-13T01:55:11.289Z,88.28125
2019-03-13T01:55:23.059Z,88.38501
2019-03-13T01:55:34.895Z,88.482666
2019-03-13T01:55:46.714Z,88.586426
2019-03-13T01:55:58.532Z,88.586426
2019-03-13T01:56:10.328Z,88.690186
2019-03-13T01:56:22.137Z,88.586426
2019-03-13T01:56:34.031Z,88.482666
2019-03-13T01:56:45.838Z,88.38501
2019-03-13T01:56:57.668Z,88.38501
2019-03-13T01:57:09.509Z,88.482666
2019-03-13T01:57:21.345Z,88.482666
2019-03-13T01:57:33.143Z,88.586426
2019-03-13T01:57:44.936Z,88.690186
2019-03-13T01:57:56.727Z,88.690186
2019-03-13T01:58:08.493Z,88.482666
2019-03-13T01:58:20.288Z,88.28125
2019-03-13T01:58:32.078Z,88.17749
2019-03-13T01:58:43.830Z,88.07373
2019-03-13T01:58:55.593Z,88.07373
2019-03-13T01:59:07.375Z,88.17749
2019-03-13T01:59:19.165Z,88.28125
2019-03-13T01:59:30.976Z,88.28125
2019-03-13T01:59:42.739Z,88.17749
2019-03-13T01:59:54.491Z,88.07373
2019-03-13T02:00:06.409Z,88.07373
2019-03-13T02:00:18.188Z,87.969971
2019-03-13T02:00:29.962Z,88.07373
2019-03-13T02:00:41.756Z,88.17749
2019-03-13T02:00:53.560Z,88.28125
2019-03-13T02:01:05.337Z,88.17749
2019-03-13T02:01:17.100Z,88.17749
2019-03-13T02:01:28.888Z,87.969971
2019-03-13T02:01:40.665Z,87.969971
2019-03-13T02:01:52.435Z,87.969971
2019-03-13T02:02:04.224Z,87.866211
2019-03-13T02:02:16.015Z,87.866211
2019-03-13T02:02:27.771Z,87.866211
2019-03-13T02:02:39.563Z,87.866211
2019-03-13T02:02:51.323Z,87.658691
2019-03-13T02:03:03.117Z,87.658691
2019-03-13T02:03:14.879Z,87.866211
2019-03-13T02:03:26.638Z,87.866211
2019-03-13T02:03:38.399Z,87.866211
2019-03-13T02:03:50.197Z,87.927246
2019-03-13T02:04:01.995Z,88.17749
2019-03-13T02:04:13.803Z,88.07373
2019-03-13T02:04:25.585Z,88.07373
2019-03-13T02:04:37.365Z,88.17749
2019-03-13T02:04:49.175Z,88.07373
2019-03-13T02:05:00.956Z,87.969971
2019-03-13T02:05:12.750Z,88.07373
2019-03-13T02:05:24.572Z,87.969971
2019-03-13T02:05:36.337Z,87.927246
2019-03-13T02:05:48.124Z,87.719727
2019-03-13T02:05:59.916Z,87.719727
2019-03-13T02:06:11.700Z,87.719727
2019-03-13T02:06:23.509Z,87.615967
2019-03-13T02:06:35.262Z,87.615967
2019-03-13T02:06:47.036Z,87.719727
2019-03-13T02:06:58.820Z,87.927246
2019-03-13T02:07:10.607Z,88.134766
2019-03-13T02:07:22.397Z,88.238525
2019-03-13T02:07:34.170Z,88.134766
2019-03-13T02:07:45.939Z,88.031006
2019-03-13T02:07:57.715Z,87.927246
2019-03-13T02:08:09.487Z,87.719727
2019-03-13T02:08:21.293Z,87.823486
2019-03-13T02:08:33.070Z,87.719727
2019-03-13T02:08:44.851Z,87.719727
2019-03-13T02:08:56.634Z,87.719727
2019-03-13T02:09:08.412Z,87.615967
2019-03-13T02:09:20.199Z,87.615967
2019-03-13T02:09:32.000Z,87.719727
2019-03-13T02:09:43.801Z,87.719727
2019-03-13T02:09:55.583Z,87.719727
2019-03-13T02:10:07.373Z,87.719727
2019-03-13T02:10:19.163Z,87.615967
2019-03-13T02:10:30.978Z,87.512207
2019-03-13T02:10:42.753Z,87.615967
2019-03-13T02:10:54.526Z,87.719727
2019-03-13T02:11:06.302Z,87.615967
2019-03-13T02:11:18.066Z,87.512207
2019-03-13T02:11:29.863Z,87.512207
2019-03-13T02:11:41.636Z,87.408447
2019-03-13T02:11:53.413Z,87.304688
2019-03-13T02:12:05.262Z,87.304688
2019-03-13T02:12:17.015Z,87.408447
2019-03-13T02:12:28.801Z,87.512207
2019-03-13T02:12:40.583Z,87.615967
2019-03-13T02:12:52.395Z,87.719727
2019-03-13T02:13:04.159Z,87.615967
2019-03-13T02:13:15.925Z,87.408447
2019-03-13T02:13:27.723Z,87.512207
2019-03-13T02:13:39.480Z,87.615967
2019-03-13T02:13:51.299Z,87.719727
2019-03-13T02:14:03.118Z,87.823486
2019-03-13T02:14:14.898Z,87.823486
2019-03-13T02:14:26.663Z,87.719727
2019-03-13T02:14:38.417Z,87.615967
2019-03-13T02:14:50.293Z,87.512207
2019-03-13T02:15:02.071Z,87.512207
2019-03-13T02:15:13.850Z,87.512207
2019-03-13T02:15:25.642Z,87.512207